sensor_id;sensor_type;location;lat;lon;timestamp;temperature;humidity
26599;DHT22;14240;51.064;16.612;2022-07-29T00:01:20;16.00;84.40
26599;DHT22;14240;51.064;16.612;2022-07-29T00:03:46;16.00;84.80
26599;DHT22;14240;51.064;16.612;2022-07-29T00:06:12;15.90;85.20
26599;DHT22;14240;51.064;16.612;2022-07-29T00:08:38;15.80;85.30
26599;DHT22;14240;51.064;16.612;2022-07-29T00:11:04;15.80;85.60
26599;DHT22;14240;51.064;16.612;2022-07-29T00:13:29;15.80;85.70
26599;DHT22;14240;51.064;16.612;2022-07-29T00:15:55;15.80;86.20
26599;DHT22;14240;51.064;16.612;2022-07-29T00:18:21;15.80;86.30
26599;DHT22;14240;51.064;16.612;2022-07-29T00:20:46;15.70;86.40
26599;DHT22;14240;51.064;16.612;2022-07-29T00:23:12;15.70;87.30
26599;DHT22;14240;51.064;16.612;2022-07-29T00:25:37;15.70;86.80
26599;DHT22;14240;51.064;16.612;2022-07-29T00:28:03;15.60;86.90
26599;DHT22;14240;51.064;16.612;2022-07-29T00:30:29;15.60;87.10
26599;DHT22;14240;51.064;16.612;2022-07-29T00:32:54;15.50;87.50
26599;DHT22;14240;51.064;16.612;2022-07-29T00:35:20;15.50;87.70
26599;DHT22;14240;51.064;16.612;2022-07-29T00:38:04;15.50;87.90
26599;DHT22;14240;51.064;16.612;2022-07-29T00:40:30;15.40;88.20
26599;DHT22;14240;51.064;16.612;2022-07-29T00:42:55;15.40;88.70
26599;DHT22;14240;51.064;16.612;2022-07-29T00:45:21;15.30;88.70
26599;DHT22;14240;51.064;16.612;2022-07-29T00:47:50;15.30;88.70
26599;DHT22;14240;51.064;16.612;2022-07-29T00:50:15;15.30;88.90
26599;DHT22;14240;51.064;16.612;2022-07-29T00:52:42;15.30;88.80
26599;DHT22;14240;51.064;16.612;2022-07-29T00:55:10;15.30;89.00
26599;DHT22;14240;51.064;16.612;2022-07-29T00:57:38;15.30;89.30
26599;DHT22;14240;51.064;16.612;2022-07-29T01:00:07;15.30;89.40
26599;DHT22;14240;51.064;16.612;2022-07-29T01:02:33;15.30;89.40
26599;DHT22;14240;51.064;16.612;2022-07-29T01:05:00;15.20;89.50
26599;DHT22;14240;51.064;16.612;2022-07-29T01:07:26;15.20;89.60
26599;DHT22;14240;51.064;16.612;2022-07-29T01:09:55;15.10;89.70
26599;DHT22;14240;51.064;16.612;2022-07-29T01:12:25;15.20;90.10
26599;DHT22;14240;51.064;16.612;2022-07-29T01:14:51;15.00;90.20
26599;DHT22;14240;51.064;16.612;2022-07-29T01:17:24;14.90;90.20
26599;DHT22;14240;51.064;16.612;2022-07-29T01:30:22;14.70;91.00
26599;DHT22;14240;51.064;16.612;2022-07-29T01:32:54;14.70;91.10
26599;DHT22;14240;51.064;16.612;2022-07-29T01:35:25;14.70;91.20
26599;DHT22;14240;51.064;16.612;2022-07-29T01:38:15;14.60;91.30
26599;DHT22;14240;51.064;16.612;2022-07-29T01:40:46;14.60;91.50
26599;DHT22;14240;51.064;16.612;2022-07-29T01:43:18;14.60;91.50
26599;DHT22;14240;51.064;16.612;2022-07-29T01:46:01;14.50;91.70
26599;DHT22;14240;51.064;16.612;2022-07-29T01:48:39;14.50;91.70
26599;DHT22;14240;51.064;16.612;2022-07-29T01:54:01;14.50;91.80
26599;DHT22;14240;51.064;16.612;2022-07-29T01:56:29;14.30;91.90
26599;DHT22;14240;51.064;16.612;2022-07-29T01:58:59;14.20;92.10
26599;DHT22;14240;51.064;16.612;2022-07-29T02:01:26;14.20;92.20
26599;DHT22;14240;51.064;16.612;2022-07-29T02:03:53;14.10;92.20
26599;DHT22;14240;51.064;16.612;2022-07-29T02:06:22;14.10;92.20
26599;DHT22;14240;51.064;16.612;2022-07-29T02:08:49;14.10;92.30
26599;DHT22;14240;51.064;16.612;2022-07-29T02:11:16;13.90;92.30
26599;DHT22;14240;51.064;16.612;2022-07-29T02:13:43;13.90;92.30
26599;DHT22;14240;51.064;16.612;2022-07-29T02:16:10;13.90;92.40
26599;DHT22;14240;51.064;16.612;2022-07-29T02:18:41;13.80;92.50
26599;DHT22;14240;51.064;16.612;2022-07-29T02:21:08;13.90;92.60
26599;DHT22;14240;51.064;16.612;2022-07-29T02:23:35;13.90;92.70
26599;DHT22;14240;51.064;16.612;2022-07-29T02:26:02;13.90;92.70
26599;DHT22;14240;51.064;16.612;2022-07-29T02:28:29;13.80;92.70
26599;DHT22;14240;51.064;16.612;2022-07-29T02:30:59;13.80;92.80
26599;DHT22;14240;51.064;16.612;2022-07-29T02:33:26;13.80;93.00
26599;DHT22;14240;51.064;16.612;2022-07-29T02:35:53;13.80;93.20
26599;DHT22;14240;51.064;16.612;2022-07-29T02:38:21;13.80;93.30
26599;DHT22;14240;51.064;16.612;2022-07-29T02:41:10;13.70;93.40
26599;DHT22;14240;51.064;16.612;2022-07-29T02:43:37;13.60;93.60
26599;DHT22;14240;51.064;16.612;2022-07-29T02:46:10;13.60;93.80
26599;DHT22;14240;51.064;16.612;2022-07-29T02:48:38;13.60;94.00
26599;DHT22;14240;51.064;16.612;2022-07-29T02:51:19;13.50;94.20
26599;DHT22;14240;51.064;16.612;2022-07-29T02:53:51;13.40;94.40
26599;DHT22;14240;51.064;16.612;2022-07-29T02:56:27;13.40;94.50
26599;DHT22;14240;51.064;16.612;2022-07-29T02:58:59;13.40;94.70
26599;DHT22;14240;51.064;16.612;2022-07-29T03:01:27;13.30;94.80
26599;DHT22;14240;51.064;16.612;2022-07-29T03:03:55;13.40;94.90
26599;DHT22;14240;51.064;16.612;2022-07-29T03:06:23;13.30;95.00
26599;DHT22;14240;51.064;16.612;2022-07-29T03:08:50;13.30;95.10
26599;DHT22;14240;51.064;16.612;2022-07-29T03:11:17;13.30;95.20
26599;DHT22;14240;51.064;16.612;2022-07-29T03:13:43;13.20;95.30
26599;DHT22;14240;51.064;16.612;2022-07-29T03:16:09;13.20;95.40
26599;DHT22;14240;51.064;16.612;2022-07-29T03:18:36;13.20;95.50
26599;DHT22;14240;51.064;16.612;2022-07-29T03:21:02;13.10;95.90
26599;DHT22;14240;51.064;16.612;2022-07-29T03:23:29;13.00;95.70
26599;DHT22;14240;51.064;16.612;2022-07-29T03:25:55;13.00;95.90
26599;DHT22;14240;51.064;16.612;2022-07-29T03:28:21;12.90;96.10
26599;DHT22;14240;51.064;16.612;2022-07-29T03:30:47;12.90;96.30
26599;DHT22;14240;51.064;16.612;2022-07-29T03:33:13;12.90;96.50
26599;DHT22;14240;51.064;16.612;2022-07-29T03:35:39;12.80;96.60
26599;DHT22;14240;51.064;16.612;2022-07-29T03:38:04;12.80;96.80
26599;DHT22;14240;51.064;16.612;2022-07-29T03:40:40;12.90;97.00
26599;DHT22;14240;51.064;16.612;2022-07-29T03:43:08;12.80;97.10
26599;DHT22;14240;51.064;16.612;2022-07-29T03:45:34;12.90;96.80
26599;DHT22;14240;51.064;16.612;2022-07-29T03:48:05;12.90;97.10
26599;DHT22;14240;51.064;16.612;2022-07-29T03:50:33;12.80;97.30
26599;DHT22;14240;51.064;16.612;2022-07-29T03:52:59;12.90;97.50
26599;DHT22;14240;51.064;16.612;2022-07-29T03:55:26;12.80;97.60
26599;DHT22;14240;51.064;16.612;2022-07-29T03:57:55;12.90;97.80
26599;DHT22;14240;51.064;16.612;2022-07-29T04:00:23;12.90;98.10
26599;DHT22;14240;51.064;16.612;2022-07-29T04:02:49;12.90;98.20
26599;DHT22;14240;51.064;16.612;2022-07-29T04:05:16;13.00;98.40
26599;DHT22;14240;51.064;16.612;2022-07-29T04:07:47;13.00;98.60
26599;DHT22;14240;51.064;16.612;2022-07-29T04:10:13;13.00;98.90
26599;DHT22;14240;51.064;16.612;2022-07-29T04:12:41;13.10;99.10
26599;DHT22;14240;51.064;16.612;2022-07-29T04:15:07;13.20;98.80
26599;DHT22;14240;51.064;16.612;2022-07-29T04:17:33;13.20;99.30
26599;DHT22;14240;51.064;16.612;2022-07-29T04:19:58;13.40;99.90
26599;DHT22;14240;51.064;16.612;2022-07-29T04:22:24;13.50;99.90
26599;DHT22;14240;51.064;16.612;2022-07-29T04:24:49;13.60;99.90
26599;DHT22;14240;51.064;16.612;2022-07-29T04:27:15;13.80;99.90
26599;DHT22;14240;51.064;16.612;2022-07-29T04:29:41;13.90;99.90
26599;DHT22;14240;51.064;16.612;2022-07-29T04:32:06;14.10;99.80
26599;DHT22;14240;51.064;16.612;2022-07-29T04:34:32;14.20;99.60
26599;DHT22;14240;51.064;16.612;2022-07-29T04:36:58;14.40;99.50
26599;DHT22;14240;51.064;16.612;2022-07-29T04:39:24;14.50;99.50
26599;DHT22;14240;51.064;16.612;2022-07-29T04:41:50;14.60;99.60
26599;DHT22;14240;51.064;16.612;2022-07-29T04:44:16;14.80;99.30
26599;DHT22;14240;51.064;16.612;2022-07-29T04:46:41;14.90;99.00
26599;DHT22;14240;51.064;16.612;2022-07-29T04:49:07;15.10;98.90
26599;DHT22;14240;51.064;16.612;2022-07-29T04:51:33;15.20;98.80
26599;DHT22;14240;51.064;16.612;2022-07-29T04:53:59;15.30;98.50
26599;DHT22;14240;51.064;16.612;2022-07-29T04:56:25;15.40;98.20
26599;DHT22;14240;51.064;16.612;2022-07-29T04:58:51;15.40;98.20
26599;DHT22;14240;51.064;16.612;2022-07-29T05:01:17;15.50;98.20
26599;DHT22;14240;51.064;16.612;2022-07-29T05:03:43;15.50;98.20
26599;DHT22;14240;51.064;16.612;2022-07-29T05:06:08;15.60;98.10
26599;DHT22;14240;51.064;16.612;2022-07-29T05:08:34;15.70;97.90
26599;DHT22;14240;51.064;16.612;2022-07-29T05:10:59;15.70;97.70
26599;DHT22;14240;51.064;16.612;2022-07-29T05:13:25;15.70;97.50
26599;DHT22;14240;51.064;16.612;2022-07-29T05:15:50;15.80;97.40
26599;DHT22;14240;51.064;16.612;2022-07-29T05:18:16;15.90;97.40
26599;DHT22;14240;51.064;16.612;2022-07-29T05:20:42;15.90;97.20
26599;DHT22;14240;51.064;16.612;2022-07-29T05:23:07;15.90;97.10
26599;DHT22;14240;51.064;16.612;2022-07-29T05:25:33;16.00;97.10
26599;DHT22;14240;51.064;16.612;2022-07-29T05:27:59;16.00;97.00
26599;DHT22;14240;51.064;16.612;2022-07-29T05:30:24;16.10;97.10
26599;DHT22;14240;51.064;16.612;2022-07-29T05:32:50;16.10;97.20
26599;DHT22;14240;51.064;16.612;2022-07-29T05:35:16;16.20;97.10
26599;DHT22;14240;51.064;16.612;2022-07-29T05:37:42;16.30;96.90
26599;DHT22;14240;51.064;16.612;2022-07-29T05:40:08;16.40;97.00
26599;DHT22;14240;51.064;16.612;2022-07-29T05:42:34;16.40;96.90
26599;DHT22;14240;51.064;16.612;2022-07-29T05:45:01;16.50;96.70
26599;DHT22;14240;51.064;16.612;2022-07-29T05:47:26;16.70;96.70
26599;DHT22;14240;51.064;16.612;2022-07-29T05:49:52;16.80;96.50
26599;DHT22;14240;51.064;16.612;2022-07-29T05:52:18;17.00;96.70
26599;DHT22;14240;51.064;16.612;2022-07-29T05:54:44;17.20;96.20
26599;DHT22;14240;51.064;16.612;2022-07-29T05:57:20;17.30;95.90
26599;DHT22;14240;51.064;16.612;2022-07-29T05:59:46;17.50;95.90
26599;DHT22;14240;51.064;16.612;2022-07-29T06:02:12;17.60;95.70
26599;DHT22;14240;51.064;16.612;2022-07-29T06:04:38;17.80;95.30
26599;DHT22;14240;51.064;16.612;2022-07-29T06:07:04;17.90;95.00
26599;DHT22;14240;51.064;16.612;2022-07-29T06:09:30;17.90;94.90
26599;DHT22;14240;51.064;16.612;2022-07-29T06:11:55;18.00;95.00
26599;DHT22;14240;51.064;16.612;2022-07-29T06:14:21;18.10;95.00
26599;DHT22;14240;51.064;16.612;2022-07-29T06:16:47;18.20;94.90
26599;DHT22;14240;51.064;16.612;2022-07-29T06:19:13;18.40;94.60
26599;DHT22;14240;51.064;16.612;2022-07-29T06:21:42;18.60;94.30
26599;DHT22;14240;51.064;16.612;2022-07-29T06:24:10;18.80;93.80
26599;DHT22;14240;51.064;16.612;2022-07-29T06:26:35;19.00;93.50
26599;DHT22;14240;51.064;16.612;2022-07-29T06:29:01;19.10;93.10
26599;DHT22;14240;51.064;16.612;2022-07-29T06:31:26;19.30;92.60
26599;DHT22;14240;51.064;16.612;2022-07-29T06:33:52;19.50;92.30
26599;DHT22;14240;51.064;16.612;2022-07-29T06:36:18;19.60;92.20
26599;DHT22;14240;51.064;16.612;2022-07-29T06:38:43;19.70;92.00
26599;DHT22;14240;51.064;16.612;2022-07-29T06:41:09;19.80;91.50
26599;DHT22;14240;51.064;16.612;2022-07-29T06:43:42;19.90;91.00
26599;DHT22;14240;51.064;16.612;2022-07-29T06:46:13;20.00;90.90
26599;DHT22;14240;51.064;16.612;2022-07-29T06:48:40;20.10;90.50
26599;DHT22;14240;51.064;16.612;2022-07-29T06:51:06;20.10;90.10
26599;DHT22;14240;51.064;16.612;2022-07-29T06:53:32;20.20;89.80
26599;DHT22;14240;51.064;16.612;2022-07-29T06:55:59;20.20;89.30
26599;DHT22;14240;51.064;16.612;2022-07-29T06:58:26;20.30;89.40
26599;DHT22;14240;51.064;16.612;2022-07-29T07:00:52;20.40;89.10
26599;DHT22;14240;51.064;16.612;2022-07-29T07:03:18;20.50;88.50
26599;DHT22;14240;51.064;16.612;2022-07-29T07:05:45;20.60;87.70
26599;DHT22;14240;51.064;16.612;2022-07-29T07:08:11;20.70;87.30
26599;DHT22;14240;51.064;16.612;2022-07-29T07:10:37;20.70;86.50
26599;DHT22;14240;51.064;16.612;2022-07-29T07:13:04;20.80;86.40
26599;DHT22;14240;51.064;16.612;2022-07-29T07:15:30;20.90;86.00
26599;DHT22;14240;51.064;16.612;2022-07-29T07:17:56;20.90;85.90
26599;DHT22;14240;51.064;16.612;2022-07-29T07:20:23;21.00;85.50
26599;DHT22;14240;51.064;16.612;2022-07-29T07:22:48;21.00;84.50
26599;DHT22;14240;51.064;16.612;2022-07-29T07:25:14;21.00;84.10
26599;DHT22;14240;51.064;16.612;2022-07-29T07:27:39;21.10;84.00
26599;DHT22;14240;51.064;16.612;2022-07-29T07:30:07;21.10;83.70
26599;DHT22;14240;51.064;16.612;2022-07-29T07:32:34;21.10;83.60
26599;DHT22;14240;51.064;16.612;2022-07-29T07:35:00;21.10;83.40
26599;DHT22;14240;51.064;16.612;2022-07-29T07:37:27;21.10;83.30
26599;DHT22;14240;51.064;16.612;2022-07-29T07:39:53;21.10;83.30
26599;DHT22;14240;51.064;16.612;2022-07-29T07:42:19;21.20;83.60
26599;DHT22;14240;51.064;16.612;2022-07-29T07:44:45;21.30;83.50
26599;DHT22;14240;51.064;16.612;2022-07-29T07:47:12;21.30;83.30
26599;DHT22;14240;51.064;16.612;2022-07-29T07:49:38;21.40;82.80
26599;DHT22;14240;51.064;16.612;2022-07-29T07:52:04;21.50;82.60
26599;DHT22;14240;51.064;16.612;2022-07-29T07:54:30;21.60;82.40
26599;DHT22;14240;51.064;16.612;2022-07-29T07:56:56;21.60;82.30
26599;DHT22;14240;51.064;16.612;2022-07-29T07:59:22;21.70;82.50
26599;DHT22;14240;51.064;16.612;2022-07-29T08:01:48;21.70;82.30
26599;DHT22;14240;51.064;16.612;2022-07-29T08:04:14;21.80;82.20
26599;DHT22;14240;51.064;16.612;2022-07-29T08:06:40;21.90;82.30
26599;DHT22;14240;51.064;16.612;2022-07-29T08:09:05;21.90;82.20
26599;DHT22;14240;51.064;16.612;2022-07-29T08:11:32;22.00;82.10
26599;DHT22;14240;51.064;16.612;2022-07-29T08:14:00;22.00;82.30
26599;DHT22;14240;51.064;16.612;2022-07-29T08:16:27;22.20;82.20
26599;DHT22;14240;51.064;16.612;2022-07-29T08:18:53;22.30;82.00
26599;DHT22;14240;51.064;16.612;2022-07-29T08:21:23;22.50;81.70
26599;DHT22;14240;51.064;16.612;2022-07-29T08:23:49;22.60;80.90
26599;DHT22;14240;51.064;16.612;2022-07-29T08:26:17;22.70;80.90
26599;DHT22;14240;51.064;16.612;2022-07-29T08:28:44;22.80;80.50
26599;DHT22;14240;51.064;16.612;2022-07-29T08:31:12;22.90;79.80
26599;DHT22;14240;51.064;16.612;2022-07-29T08:33:38;23.10;79.80
26599;DHT22;14240;51.064;16.612;2022-07-29T08:36:05;23.20;79.40
26599;DHT22;14240;51.064;16.612;2022-07-29T08:38:31;23.20;78.80
26599;DHT22;14240;51.064;16.612;2022-07-29T08:40:56;23.30;78.80
26599;DHT22;14240;51.064;16.612;2022-07-29T08:43:23;23.30;78.80
26599;DHT22;14240;51.064;16.612;2022-07-29T08:45:50;23.40;78.00
26599;DHT22;14240;51.064;16.612;2022-07-29T08:48:18;23.50;77.70
26599;DHT22;14240;51.064;16.612;2022-07-29T08:50:46;23.90;78.20
26599;DHT22;14240;51.064;16.612;2022-07-29T08:53:13;23.70;77.40
26599;DHT22;14240;51.064;16.612;2022-07-29T08:55:42;23.70;76.80
26599;DHT22;14240;51.064;16.612;2022-07-29T08:58:09;23.80;77.00
26599;DHT22;14240;51.064;16.612;2022-07-29T09:00:37;23.90;77.10
26599;DHT22;14240;51.064;16.612;2022-07-29T09:03:04;24.00;77.50
26599;DHT22;14240;51.064;16.612;2022-07-29T09:05:31;24.10;77.00
26599;DHT22;14240;51.064;16.612;2022-07-29T09:07:58;24.30;76.60
26599;DHT22;14240;51.064;16.612;2022-07-29T09:10:24;24.40;77.00
26599;DHT22;14240;51.064;16.612;2022-07-29T09:12:50;24.50;76.40
26599;DHT22;14240;51.064;16.612;2022-07-29T09:15:17;24.60;75.50
26599;DHT22;14240;51.064;16.612;2022-07-29T09:17:45;24.70;74.90
26599;DHT22;14240;51.064;16.612;2022-07-29T09:20:13;24.70;74.70
26599;DHT22;14240;51.064;16.612;2022-07-29T09:22:39;24.70;74.50
26599;DHT22;14240;51.064;16.612;2022-07-29T09:25:05;24.80;74.20
26599;DHT22;14240;51.064;16.612;2022-07-29T09:27:31;24.80;73.90
26599;DHT22;14240;51.064;16.612;2022-07-29T09:30:07;24.80;74.40
26599;DHT22;14240;51.064;16.612;2022-07-29T09:32:58;24.90;74.30
26599;DHT22;14240;51.064;16.612;2022-07-29T09:35:26;25.00;73.80
26599;DHT22;14240;51.064;16.612;2022-07-29T09:37:53;25.00;73.20
26599;DHT22;14240;51.064;16.612;2022-07-29T09:40:27;25.10;73.30
26599;DHT22;14240;51.064;16.612;2022-07-29T09:42:53;25.10;72.60
26599;DHT22;14240;51.064;16.612;2022-07-29T09:45:30;25.20;72.90
26599;DHT22;14240;51.064;16.612;2022-07-29T09:47:57;25.30;72.70
26599;DHT22;14240;51.064;16.612;2022-07-29T09:50:38;25.30;72.30
26599;DHT22;14240;51.064;16.612;2022-07-29T09:53:04;25.40;72.30
26599;DHT22;14240;51.064;16.612;2022-07-29T09:55:30;25.40;72.30
26599;DHT22;14240;51.064;16.612;2022-07-29T09:58:15;25.50;71.70
26599;DHT22;14240;51.064;16.612;2022-07-29T10:00:43;25.60;71.70
26599;DHT22;14240;51.064;16.612;2022-07-29T10:03:09;25.70;70.90
26599;DHT22;14240;51.064;16.612;2022-07-29T10:05:34;25.70;70.50
26599;DHT22;14240;51.064;16.612;2022-07-29T10:08:00;25.70;70.50
26599;DHT22;14240;51.064;16.612;2022-07-29T10:10:32;25.70;69.80
26599;DHT22;14240;51.064;16.612;2022-07-29T10:13:17;25.70;70.00
26599;DHT22;14240;51.064;16.612;2022-07-29T10:15:44;25.90;71.40
26599;DHT22;14240;51.064;16.612;2022-07-29T10:18:13;26.00;70.90
26599;DHT22;14240;51.064;16.612;2022-07-29T10:20:40;26.10;70.50
26599;DHT22;14240;51.064;16.612;2022-07-29T10:23:05;26.20;70.40
26599;DHT22;14240;51.064;16.612;2022-07-29T10:25:31;26.30;69.20
26599;DHT22;14240;51.064;16.612;2022-07-29T10:27:57;26.40;69.30
26599;DHT22;14240;51.064;16.612;2022-07-29T10:30:24;26.50;69.60
26599;DHT22;14240;51.064;16.612;2022-07-29T10:38:39;26.80;68.60
26599;DHT22;14240;51.064;16.612;2022-07-29T10:44:21;26.80;68.00
26599;DHT22;14240;51.064;16.612;2022-07-29T10:46:48;26.80;67.80
26599;DHT22;14240;51.064;16.612;2022-07-29T10:49:25;26.80;67.50
26599;DHT22;14240;51.064;16.612;2022-07-29T10:52:08;26.90;67.50
26599;DHT22;14240;51.064;16.612;2022-07-29T10:57:28;27.00;67.30
26599;DHT22;14240;51.064;16.612;2022-07-29T11:05:10;27.00;67.20
26599;DHT22;14240;51.064;16.612;2022-07-29T11:07:37;27.00;67.20
26599;DHT22;14240;51.064;16.612;2022-07-29T11:15:20;27.10;66.50
26599;DHT22;14240;51.064;16.612;2022-07-29T11:20:46;27.00;66.60
26599;DHT22;14240;51.064;16.612;2022-07-29T11:28:52;26.80;66.90
26599;DHT22;14240;51.064;16.612;2022-07-29T11:31:32;26.80;66.70
26599;DHT22;14240;51.064;16.612;2022-07-29T11:34:28;26.80;66.60
26599;DHT22;14240;51.064;16.612;2022-07-29T11:50:26;26.80;66.40
26599;DHT22;14240;51.064;16.612;2022-07-29T11:52:52;26.70;66.60
26599;DHT22;14240;51.064;16.612;2022-07-29T11:55:20;26.70;67.10
26599;DHT22;14240;51.064;16.612;2022-07-29T11:57:48;26.80;67.20
26599;DHT22;14240;51.064;16.612;2022-07-29T12:02:55;26.80;67.00
26599;DHT22;14240;51.064;16.612;2022-07-29T12:05:24;26.80;67.10
26599;DHT22;14240;51.064;16.612;2022-07-29T12:07:55;26.80;67.20
26599;DHT22;14240;51.064;16.612;2022-07-29T12:10:20;27.00;67.80
26599;DHT22;14240;51.064;16.612;2022-07-29T12:12:51;27.00;66.80
26599;DHT22;14240;51.064;16.612;2022-07-29T12:15:18;27.10;66.10
26599;DHT22;14240;51.064;16.612;2022-07-29T12:17:46;27.10;66.60
26599;DHT22;14240;51.064;16.612;2022-07-29T12:20:12;27.10;66.10
26599;DHT22;14240;51.064;16.612;2022-07-29T12:22:41;27.10;65.70
26599;DHT22;14240;51.064;16.612;2022-07-29T12:25:13;27.00;65.80
26599;DHT22;14240;51.064;16.612;2022-07-29T12:27:41;27.00;66.20
26599;DHT22;14240;51.064;16.612;2022-07-29T12:30:13;27.10;66.10
26599;DHT22;14240;51.064;16.612;2022-07-29T12:32:46;27.10;65.40
26599;DHT22;14240;51.064;16.612;2022-07-29T12:35:16;27.20;65.50
26599;DHT22;14240;51.064;16.612;2022-07-29T12:37:44;27.30;65.60
26599;DHT22;14240;51.064;16.612;2022-07-29T12:40:15;27.40;64.60
26599;DHT22;14240;51.064;16.612;2022-07-29T12:45:30;27.50;64.00
26599;DHT22;14240;51.064;16.612;2022-07-29T12:47:56;27.50;64.00
26599;DHT22;14240;51.064;16.612;2022-07-29T12:50:21;27.50;63.80
26599;DHT22;14240;51.064;16.612;2022-07-29T12:52:47;27.50;63.60
26599;DHT22;14240;51.064;16.612;2022-07-29T12:55:13;27.50;63.50
26599;DHT22;14240;51.064;16.612;2022-07-29T12:57:47;27.60;63.60
26599;DHT22;14240;51.064;16.612;2022-07-29T13:00:14;27.60;63.50
26599;DHT22;14240;51.064;16.612;2022-07-29T13:02:41;27.60;63.40
26599;DHT22;14240;51.064;16.612;2022-07-29T13:05:09;27.50;63.10
26599;DHT22;14240;51.064;16.612;2022-07-29T13:07:35;27.50;63.40
26599;DHT22;14240;51.064;16.612;2022-07-29T13:10:19;27.50;64.00
26599;DHT22;14240;51.064;16.612;2022-07-29T13:13:14;27.40;63.90
26599;DHT22;14240;51.064;16.612;2022-07-29T13:15:44;27.50;63.90
26599;DHT22;14240;51.064;16.612;2022-07-29T13:18:38;27.50;63.60
26599;DHT22;14240;51.064;16.612;2022-07-29T13:21:15;27.50;63.10
26599;DHT22;14240;51.064;16.612;2022-07-29T13:23:41;27.40;62.70
26599;DHT22;14240;51.064;16.612;2022-07-29T13:26:10;27.40;63.20
26599;DHT22;14240;51.064;16.612;2022-07-29T13:28:37;27.40;63.10
26599;DHT22;14240;51.064;16.612;2022-07-29T13:31:02;27.50;63.40
26599;DHT22;14240;51.064;16.612;2022-07-29T13:33:29;27.50;63.40
26599;DHT22;14240;51.064;16.612;2022-07-29T13:35:56;27.50;63.40
26599;DHT22;14240;51.064;16.612;2022-07-29T13:38:22;27.50;62.70
26599;DHT22;14240;51.064;16.612;2022-07-29T13:40:48;27.50;62.80
26599;DHT22;14240;51.064;16.612;2022-07-29T13:43:13;27.60;63.00
26599;DHT22;14240;51.064;16.612;2022-07-29T13:45:39;27.60;62.80
26599;DHT22;14240;51.064;16.612;2022-07-29T13:48:05;27.60;62.60
26599;DHT22;14240;51.064;16.612;2022-07-29T13:50:32;27.60;62.90
26599;DHT22;14240;51.064;16.612;2022-07-29T13:52:58;27.60;62.70
26599;DHT22;14240;51.064;16.612;2022-07-29T13:55:23;27.60;62.60
26599;DHT22;14240;51.064;16.612;2022-07-29T13:57:49;27.50;62.60
26599;DHT22;14240;51.064;16.612;2022-07-29T14:00:15;27.50;62.60
26599;DHT22;14240;51.064;16.612;2022-07-29T14:02:42;27.50;63.20
26599;DHT22;14240;51.064;16.612;2022-07-29T14:05:08;27.50;62.90
26599;DHT22;14240;51.064;16.612;2022-07-29T14:07:35;27.40;62.50
26599;DHT22;14240;51.064;16.612;2022-07-29T14:10:01;27.30;62.90
26599;DHT22;14240;51.064;16.612;2022-07-29T14:12:26;27.30;63.40
26599;DHT22;14240;51.064;16.612;2022-07-29T14:14:52;27.20;63.30
26599;DHT22;14240;51.064;16.612;2022-07-29T14:17:18;27.20;63.20
26599;DHT22;14240;51.064;16.612;2022-07-29T14:19:43;27.20;63.40
26599;DHT22;14240;51.064;16.612;2022-07-29T14:22:09;27.20;63.30
26599;DHT22;14240;51.064;16.612;2022-07-29T14:24:36;27.10;63.30
26599;DHT22;14240;51.064;16.612;2022-07-29T14:27:02;27.10;63.80
26599;DHT22;14240;51.064;16.612;2022-07-29T14:29:27;27.10;63.80
26599;DHT22;14240;51.064;16.612;2022-07-29T14:31:53;27.00;63.90
26599;DHT22;14240;51.064;16.612;2022-07-29T14:34:19;27.00;64.00
26599;DHT22;14240;51.064;16.612;2022-07-29T14:36:44;26.90;64.10
26599;DHT22;14240;51.064;16.612;2022-07-29T14:39:10;26.90;64.30
26599;DHT22;14240;51.064;16.612;2022-07-29T14:41:36;26.90;64.20
26599;DHT22;14240;51.064;16.612;2022-07-29T14:44:02;26.90;64.60
26599;DHT22;14240;51.064;16.612;2022-07-29T14:46:28;26.80;64.90
26599;DHT22;14240;51.064;16.612;2022-07-29T14:48:54;26.80;64.70
26599;DHT22;14240;51.064;16.612;2022-07-29T14:51:20;26.80;64.70
26599;DHT22;14240;51.064;16.612;2022-07-29T14:53:45;26.80;65.10
26599;DHT22;14240;51.064;16.612;2022-07-29T14:56:11;26.80;65.10
26599;DHT22;14240;51.064;16.612;2022-07-29T14:58:36;26.80;65.30
26599;DHT22;14240;51.064;16.612;2022-07-29T15:01:02;26.70;65.20
26599;DHT22;14240;51.064;16.612;2022-07-29T15:03:28;26.70;65.60
26599;DHT22;14240;51.064;16.612;2022-07-29T15:05:54;26.80;65.50
26599;DHT22;14240;51.064;16.612;2022-07-29T15:08:20;26.80;65.40
26599;DHT22;14240;51.064;16.612;2022-07-29T15:10:45;26.80;65.70
26599;DHT22;14240;51.064;16.612;2022-07-29T15:13:11;26.90;65.30
26599;DHT22;14240;51.064;16.612;2022-07-29T15:15:37;26.80;65.30
26599;DHT22;14240;51.064;16.612;2022-07-29T15:18:03;26.80;65.20
26599;DHT22;14240;51.064;16.612;2022-07-29T15:20:29;26.80;65.40
26599;DHT22;14240;51.064;16.612;2022-07-29T15:22:55;26.80;65.60
26599;DHT22;14240;51.064;16.612;2022-07-29T15:25:21;26.80;65.80
26599;DHT22;14240;51.064;16.612;2022-07-29T15:27:47;26.80;65.90
26599;DHT22;14240;51.064;16.612;2022-07-29T15:30:13;26.80;65.60
26599;DHT22;14240;51.064;16.612;2022-07-29T15:32:42;26.90;65.90
26599;DHT22;14240;51.064;16.612;2022-07-29T15:35:08;26.90;65.60
26599;DHT22;14240;51.064;16.612;2022-07-29T15:37:36;26.90;65.50
26599;DHT22;14240;51.064;16.612;2022-07-29T15:40:02;26.80;65.50
26599;DHT22;14240;51.064;16.612;2022-07-29T15:42:28;26.80;66.10
26599;DHT22;14240;51.064;16.612;2022-07-29T15:44:53;26.70;65.40
26599;DHT22;14240;51.064;16.612;2022-07-29T15:47:20;26.80;65.70
26599;DHT22;14240;51.064;16.612;2022-07-29T15:49:46;26.80;65.70
26599;DHT22;14240;51.064;16.612;2022-07-29T15:52:11;26.70;65.80
26599;DHT22;14240;51.064;16.612;2022-07-29T15:54:38;26.80;66.10
26599;DHT22;14240;51.064;16.612;2022-07-29T15:57:06;26.80;66.00
26599;DHT22;14240;51.064;16.612;2022-07-29T15:59:32;26.80;66.20
26599;DHT22;14240;51.064;16.612;2022-07-29T16:01:58;26.90;65.80
26599;DHT22;14240;51.064;16.612;2022-07-29T16:04:24;26.80;65.60
26599;DHT22;14240;51.064;16.612;2022-07-29T16:06:49;26.80;65.70
26599;DHT22;14240;51.064;16.612;2022-07-29T16:09:16;26.80;65.70
26599;DHT22;14240;51.064;16.612;2022-07-29T16:11:42;26.70;65.70
26599;DHT22;14240;51.064;16.612;2022-07-29T16:14:08;26.70;67.00
26599;DHT22;14240;51.064;16.612;2022-07-29T16:16:35;26.70;68.50
26599;DHT22;14240;51.064;16.612;2022-07-29T16:19:01;26.70;69.30
26599;DHT22;14240;51.064;16.612;2022-07-29T16:21:26;26.60;70.10